createdAt,value
2018-08-03T00:00:21.230Z,7.00
2018-08-03T00:02:50.955Z,6.90
2018-08-03T00:05:20.204Z,7.73
2018-08-03T00:07:49.699Z,7.33
2018-08-03T00:10:19.364Z,7.90
2018-08-03T00:12:48.820Z,6.60
2018-08-03T00:15:18.517Z,7.50
2018-08-03T00:17:48.323Z,7.63
2018-08-03T00:20:18.050Z,7.87
2018-08-03T00:22:47.404Z,6.77
2018-08-03T00:25:16.973Z,7.80
2018-08-03T00:27:46.242Z,7.83
2018-08-03T00:30:15.972Z,7.27
2018-08-03T00:32:45.298Z,6.40
2018-08-03T00:35:14.559Z,8.83
2018-08-03T00:37:44.251Z,8.57
2018-08-03T00:40:13.871Z,8.80
2018-08-03T00:42:43.153Z,8.47
2018-08-03T00:45:12.414Z,8.07
2018-08-03T00:47:42.210Z,8.20
2018-08-03T00:50:11.467Z,7.43
2018-08-03T00:52:40.705Z,8.27
2018-08-03T00:55:09.987Z,8.33
2018-08-03T00:57:39.199Z,8.40
2018-08-03T01:00:09.292Z,8.17
2018-08-03T01:02:38.954Z,8.30
2018-08-03T01:05:08.263Z,7.67
2018-08-03T01:07:37.499Z,8.00
2018-08-03T01:10:07.074Z,9.03
2018-08-03T01:12:36.851Z,8.57
2018-08-03T01:15:06.728Z,8.97
2018-08-03T01:17:39.324Z,8.73
2018-08-03T01:20:08.983Z,8.10
2018-08-03T01:22:38.276Z,10.70
2018-08-03T01:25:07.787Z,9.20
2018-08-03T01:27:37.084Z,9.63
2018-08-03T01:30:06.745Z,9.10
2018-08-03T01:32:36.014Z,8.20
2018-08-03T01:35:05.310Z,8.33
2018-08-03T01:37:34.587Z,9.17
2018-08-03T01:40:04.252Z,9.53
2018-08-03T01:42:33.787Z,8.20
2018-08-03T01:45:03.056Z,7.83
2018-08-03T01:47:32.603Z,7.23
2018-08-03T01:50:02.180Z,7.27
2018-08-03T01:52:31.770Z,7.87
2018-08-03T01:55:01.394Z,7.57
2018-08-03T01:57:30.686Z,8.23
2018-08-03T01:59:59.932Z,7.97
2018-08-03T02:02:29.171Z,7.77
2018-08-03T02:04:59.022Z,7.30
2018-08-03T02:07:28.296Z,8.13
2018-08-03T02:09:58.662Z,8.90
2018-08-03T02:12:27.935Z,7.80
2018-08-03T02:14:57.230Z,8.20
2018-08-03T02:17:27.016Z,8.17
2018-08-03T02:19:56.302Z,7.00
2018-08-03T02:22:25.588Z,6.80
2018-08-03T02:24:56.075Z,8.13
2018-08-03T02:27:25.349Z,7.93
2018-08-03T02:29:55.038Z,7.53
2018-08-03T02:32:24.337Z,7.80
2018-08-03T02:34:53.616Z,7.80
2018-08-03T02:37:33.496Z,7.40
2018-08-03T02:40:02.746Z,9.80
2018-08-03T02:42:32.337Z,10.07
2018-08-03T02:45:01.696Z,9.90
2018-08-03T02:47:30.941Z,9.80
2018-08-03T02:50:00.277Z,9.23
2018-08-03T02:52:30.547Z,10.50
2018-08-03T02:54:59.817Z,10.80
2018-08-03T02:57:29.079Z,11.30
2018-08-03T02:59:58.367Z,10.50
2018-08-03T03:02:27.621Z,10.60
2018-08-03T03:04:56.843Z,11.20
2018-08-03T03:07:26.160Z,11.03
2018-08-03T03:09:55.352Z,11.13
2018-08-03T03:12:24.619Z,12.40
2018-08-03T03:14:53.898Z,11.77
2018-08-03T03:17:23.150Z,9.77
2018-08-03T03:19:53.245Z,11.80
2018-08-03T03:22:22.490Z,11.10
2018-08-03T03:24:52.109Z,9.80
2018-08-03T03:27:21.883Z,11.33
2018-08-03T03:29:51.550Z,10.47
2018-08-03T03:32:21.270Z,11.00
2018-08-03T03:34:51.006Z,10.43
2018-08-03T03:37:20.736Z,11.90
2018-08-03T03:39:49.979Z,12.17
2018-08-03T03:42:19.239Z,9.70
2018-08-03T03:44:48.540Z,10.13
2018-08-03T03:47:18.119Z,12.43
2018-08-03T03:49:47.440Z,11.73
2018-08-03T03:52:16.652Z,11.77
2018-08-03T03:54:45.686Z,11.80
2018-08-03T03:57:14.922Z,11.70
2018-08-03T03:59:44.284Z,12.07
2018-08-03T04:02:13.528Z,11.20
2018-08-03T04:04:42.879Z,11.80
2018-08-03T04:07:12.102Z,12.37
2018-08-03T04:09:41.334Z,11.77
2018-08-03T04:12:10.641Z,11.77
2018-08-03T04:14:39.902Z,11.47
2018-08-03T04:17:09.218Z,11.17
2018-08-03T04:19:39.140Z,10.83
2018-08-03T04:22:08.752Z,10.70
2018-08-03T04:24:38.041Z,11.50
2018-08-03T04:27:07.626Z,10.40
2018-08-03T04:29:36.967Z,10.60
2018-08-03T04:32:06.264Z,10.40
2018-08-03T04:34:35.844Z,10.10
2018-08-03T04:37:05.514Z,10.13
2018-08-03T04:39:34.741Z,10.10
2018-08-03T04:42:04.050Z,10.33
2018-08-03T04:44:33.546Z,9.33
2018-08-03T04:47:02.808Z,9.33
2018-08-03T04:49:32.063Z,9.10
2018-08-03T04:52:01.524Z,8.83
2018-08-03T04:54:30.778Z,8.97
2018-08-03T04:57:00.342Z,8.90
2018-08-03T04:59:29.609Z,8.30
2018-08-03T05:01:59.323Z,7.43
2018-08-03T05:04:28.571Z,7.53
2018-08-03T05:06:58.160Z,7.30
2018-08-03T05:09:27.364Z,8.00
2018-08-03T05:11:57.038Z,7.27
2018-08-03T05:14:26.323Z,8.47
2018-08-03T05:16:55.990Z,7.40
2018-08-03T05:19:26.118Z,7.20
2018-08-03T05:21:55.407Z,7.90
2018-08-03T05:24:24.690Z,8.20
2018-08-03T05:26:53.931Z,9.47
2018-08-03T05:29:23.937Z,8.77
2018-08-03T05:31:53.158Z,7.67
2018-08-03T05:34:22.714Z,6.80
2018-08-03T05:36:51.991Z,6.90
2018-08-03T05:39:21.260Z,6.20
2018-08-03T05:41:50.478Z,5.80
2018-08-03T05:44:19.747Z,6.20
2018-08-03T05:46:49.340Z,6.90
2018-08-03T05:49:18.770Z,5.67
2018-08-03T05:51:48.455Z,6.00
2018-08-03T05:54:18.135Z,5.47
2018-08-03T05:56:47.406Z,4.63
2018-08-03T05:59:17.069Z,4.87
2018-08-03T06:01:46.294Z,5.57
2018-08-03T06:04:15.862Z,3.83
2018-08-03T06:06:45.156Z,3.80
2018-08-03T06:09:14.398Z,2.90
2018-08-03T06:11:43.768Z,2.90
2018-08-03T06:14:13.038Z,2.80
2018-08-03T06:16:42.618Z,3.00
2018-08-03T06:19:12.509Z,2.07
2018-08-03T06:21:41.815Z,2.00
2018-08-03T06:24:11.326Z,1.50
2018-08-03T06:26:40.535Z,1.67
2018-08-03T06:29:10.003Z,1.50
2018-08-03T06:31:39.292Z,1.47
2018-08-03T06:34:08.539Z,2.07
2018-08-03T06:36:37.852Z,1.60
2018-08-03T06:39:09.570Z,1.67
2018-08-03T06:41:39.139Z,2.10
2018-08-03T06:44:08.413Z,2.00
2018-08-03T06:46:38.215Z,2.10
2018-08-03T06:49:07.758Z,1.60
2018-08-03T06:51:36.970Z,1.63
2018-08-03T06:54:06.309Z,2.43
2018-08-03T06:56:35.609Z,2.60
2018-08-03T06:59:04.987Z,2.67
2018-08-03T07:01:34.262Z,2.20
2018-08-03T07:04:03.891Z,2.20
2018-08-03T07:06:33.518Z,2.77
2018-08-03T07:09:02.798Z,2.40
2018-08-03T07:11:32.912Z,2.27
2018-08-03T07:14:02.177Z,2.73
2018-08-03T07:16:31.984Z,2.47
2018-08-03T07:19:01.563Z,2.20
2018-08-03T07:21:30.815Z,2.23
2018-08-03T07:24:00.105Z,2.13
2018-08-03T07:26:29.364Z,2.20
2018-08-03T07:28:58.595Z,2.70
2018-08-03T07:31:27.954Z,3.10
2018-08-03T07:33:57.233Z,2.70
2018-08-03T07:36:26.526Z,2.47
2018-08-03T07:38:56.251Z,2.73
2018-08-03T07:41:25.568Z,2.50
2018-08-03T07:43:54.787Z,2.40
2018-08-03T07:46:24.403Z,2.67
2018-08-03T07:48:53.991Z,2.30
2018-08-03T07:51:23.640Z,2.60
2018-08-03T07:53:52.903Z,2.40
2018-08-03T07:56:22.104Z,2.50
2018-08-03T07:58:51.367Z,2.57
2018-08-03T08:01:20.663Z,2.60
2018-08-03T08:03:49.936Z,2.70
2018-08-03T08:06:19.252Z,2.90
2018-08-03T08:08:48.855Z,2.50
2018-08-03T08:11:18.492Z,2.70
2018-08-03T08:13:47.776Z,2.67
2018-08-03T08:16:17.379Z,2.73
2018-08-03T08:18:47.838Z,2.70
2018-08-03T08:21:17.715Z,2.70
2018-08-03T08:23:47.030Z,2.90
2018-08-03T08:26:16.715Z,2.40
2018-08-03T08:28:45.992Z,2.40
2018-08-03T08:31:15.247Z,2.07
2018-08-03T08:33:44.535Z,2.40
2018-08-03T08:36:13.820Z,2.23
2018-08-03T08:38:43.094Z,2.30
2018-08-03T08:41:12.644Z,2.57
2018-08-03T08:43:44.551Z,2.07
2018-08-03T08:46:14.074Z,2.93
2018-08-03T08:48:43.355Z,3.10
2018-08-03T08:51:13.006Z,2.53
2018-08-03T08:53:42.289Z,2.07
2018-08-03T08:56:11.522Z,2.30
2018-08-03T08:58:41.217Z,2.27
2018-08-03T09:01:10.522Z,1.90
2018-08-03T09:03:40.134Z,2.17
2018-08-03T09:06:09.467Z,2.10
2018-08-03T09:08:38.667Z,2.37
2018-08-03T09:11:08.846Z,2.03
2018-08-03T09:13:38.079Z,1.97
2018-08-03T09:16:07.615Z,2.20
2018-08-03T09:18:36.943Z,1.10
2018-08-03T09:21:06.583Z,1.50
2018-08-03T09:23:35.860Z,1.10
2018-08-03T09:26:05.103Z,1.07
2018-08-03T09:28:34.422Z,0.80
2018-08-03T09:31:03.716Z,1.30
2018-08-03T09:33:33.798Z,0.80
2018-08-03T09:36:03.043Z,0.73
2018-08-03T09:38:32.248Z,0.57
2018-08-03T09:41:01.538Z,1.17
2018-08-03T09:43:30.635Z,0.67
2018-08-03T09:46:01.159Z,0.67
2018-08-03T09:48:30.442Z,1.00
2018-08-03T09:50:59.657Z,0.80
2018-08-03T09:53:29.616Z,1.10
2018-08-03T09:55:58.878Z,1.20
2018-08-03T09:58:28.155Z,1.20
2018-08-03T10:01:01.853Z,1.10
2018-08-03T10:03:31.589Z,0.70
2018-08-03T10:06:00.605Z,0.70
2018-08-03T10:08:30.742Z,0.73
2018-08-03T10:11:00.064Z,0.70
2018-08-03T10:13:29.739Z,0.70
2018-08-03T10:15:59.319Z,0.80
2018-08-03T10:18:28.677Z,0.70
2018-08-03T10:21:04.912Z,0.93
2018-08-03T10:23:34.159Z,0.60
2018-08-03T10:26:04.263Z,0.70
2018-08-03T10:28:33.815Z,0.90
2018-08-03T10:31:03.403Z,1.00
2018-08-03T10:33:32.685Z,1.00
2018-08-03T10:36:02.175Z,1.60
2018-08-03T10:38:32.078Z,1.87
2018-08-03T10:41:01.622Z,2.13
2018-08-03T10:43:31.064Z,2.23
2018-08-03T10:46:00.427Z,2.20
2018-08-03T10:48:30.427Z,2.37
2018-08-03T10:50:59.769Z,1.80
2018-08-03T10:53:29.094Z,2.27
2018-08-03T10:55:58.345Z,2.70
2018-08-03T10:58:27.972Z,2.50
2018-08-03T11:00:57.905Z,2.30
2018-08-03T11:03:27.159Z,2.50
2018-08-03T11:05:56.644Z,2.47
2018-08-03T11:08:26.730Z,2.27
2018-08-03T11:10:55.941Z,2.47
2018-08-03T11:13:25.197Z,3.03
2018-08-03T11:15:54.876Z,2.63
2018-08-03T11:18:24.104Z,2.97
2018-08-03T11:20:53.974Z,2.30
2018-08-03T11:23:23.644Z,2.20
2018-08-03T11:25:53.207Z,2.40
2018-08-03T11:28:22.896Z,1.87
2018-08-03T11:30:55.506Z,2.10
2018-08-03T11:33:25.407Z,1.77
2018-08-03T11:35:55.631Z,1.30
2018-08-03T11:38:25.262Z,1.50
2018-08-03T11:40:54.628Z,1.60
2018-08-03T11:43:23.977Z,1.70
2018-08-03T11:45:53.226Z,2.10
2018-08-03T11:48:22.571Z,2.00
2018-08-03T11:50:52.603Z,2.10
2018-08-03T11:53:21.920Z,2.60
2018-08-03T11:55:51.608Z,2.73
2018-08-03T11:58:20.866Z,2.87
2018-08-03T12:00:50.263Z,2.50
2018-08-03T12:03:19.838Z,2.90
2018-08-03T12:05:49.509Z,2.50
2018-08-03T12:08:18.740Z,2.83
2018-08-03T12:10:47.970Z,2.83
2018-08-03T12:13:17.236Z,2.63
2018-08-03T12:15:46.508Z,2.50
2018-08-03T12:18:16.665Z,3.10
2018-08-03T12:20:47.794Z,2.47
2018-08-03T12:23:17.133Z,3.27
2018-08-03T12:25:46.438Z,2.73
2018-08-03T12:28:15.688Z,2.90
2018-08-03T12:30:45.250Z,2.93
2018-08-03T12:33:14.459Z,2.57
2018-08-03T12:35:43.780Z,2.43
2018-08-03T12:38:13.720Z,2.60
2018-08-03T12:40:43.016Z,3.00
2018-08-03T12:43:12.367Z,2.40
2018-08-03T12:45:41.535Z,3.20
2018-08-03T12:48:11.123Z,2.60
2018-08-03T12:50:40.695Z,3.10
2018-08-03T12:53:09.994Z,2.70
2018-08-03T12:55:39.071Z,3.33
2018-08-03T12:58:08.693Z,2.93
2018-08-03T13:00:38.287Z,2.70
2018-08-03T13:03:07.996Z,2.57
2018-08-03T13:05:37.506Z,2.90
2018-08-03T13:08:07.356Z,2.90
2018-08-03T13:10:43.776Z,3.07
2018-08-03T13:13:13.289Z,2.50
2018-08-03T13:15:42.589Z,2.50
2018-08-03T13:18:11.912Z,2.83
2018-08-03T13:20:41.648Z,2.77
2018-08-03T13:23:11.051Z,2.97
2018-08-03T13:25:40.329Z,2.93
2018-08-03T13:28:10.057Z,2.50
2018-08-03T13:30:39.294Z,2.63
2018-08-03T13:33:09.134Z,3.10
2018-08-03T13:35:38.290Z,3.50
2018-08-03T13:38:07.972Z,2.73
2018-08-03T13:40:37.526Z,2.57
2018-08-03T13:43:07.338Z,2.50
2018-08-03T13:45:36.617Z,2.57
2018-08-03T13:48:05.881Z,2.70
2018-08-03T13:50:35.142Z,2.57
2018-08-03T13:53:04.464Z,2.70
2018-08-03T13:55:34.057Z,2.90
2018-08-03T13:58:03.670Z,2.67
2018-08-03T14:00:32.936Z,2.53
2018-08-03T14:03:02.240Z,3.07
2018-08-03T14:05:31.574Z,2.80
2018-08-03T14:08:00.838Z,2.63
2018-08-03T14:10:30.507Z,2.80
2018-08-03T14:12:59.758Z,3.00
2018-08-03T14:15:29.040Z,2.30
2018-08-03T14:17:58.328Z,2.70
2018-08-03T14:20:27.578Z,3.30
2018-08-03T14:22:57.232Z,3.20
2018-08-03T14:25:26.548Z,3.00
2018-08-03T14:27:55.754Z,3.10
2018-08-03T14:30:24.980Z,2.80
2018-08-03T14:32:54.539Z,4.20
2018-08-03T14:35:24.157Z,2.90
2018-08-03T14:37:53.397Z,3.80
2018-08-03T14:40:22.632Z,3.13
2018-08-03T14:42:52.208Z,3.70
2018-08-03T14:45:21.874Z,2.90
2018-08-03T14:47:51.123Z,3.00
2018-08-03T14:50:20.641Z,4.10
2018-08-03T14:52:50.291Z,2.93
2018-08-03T14:55:19.505Z,3.00
2018-08-03T14:57:48.751Z,3.20
2018-08-03T15:00:18.316Z,3.60
2018-08-03T15:02:47.882Z,3.07
2018-08-03T15:05:17.143Z,3.10
2018-08-03T15:07:47.100Z,3.53
2018-08-03T15:10:16.682Z,3.40
2018-08-03T15:12:45.947Z,3.20
2018-08-03T15:15:15.482Z,3.30
2018-08-03T15:17:44.755Z,3.03
2018-08-03T15:20:14.143Z,3.23
2018-08-03T15:22:43.858Z,3.47
2018-08-03T15:25:13.167Z,3.43
2018-08-03T15:27:42.433Z,3.60
2018-08-03T15:30:12.352Z,3.40
2018-08-03T15:32:41.599Z,3.33
2018-08-03T15:35:10.813Z,3.47
2018-08-03T15:37:40.104Z,4.10
2018-08-03T15:40:09.376Z,6.70
2018-08-03T15:42:38.878Z,4.07
2018-08-03T15:45:09.111Z,5.00
2018-08-03T15:47:38.324Z,5.30
2018-08-03T15:50:07.771Z,3.97
2018-08-03T15:52:37.020Z,3.63
2018-08-03T15:55:06.336Z,4.40
2018-08-03T15:57:35.777Z,4.07
2018-08-03T16:00:06.610Z,4.20
2018-08-03T16:02:35.874Z,4.20
2018-08-03T16:05:05.408Z,4.70
2018-08-03T16:07:34.626Z,4.00
2018-08-03T16:10:03.864Z,3.93
2018-08-03T16:12:33.577Z,4.07
2018-08-03T16:15:03.063Z,3.90
2018-08-03T16:17:32.390Z,3.80
2018-08-03T16:20:02.043Z,3.80
2018-08-03T16:22:31.387Z,3.40
2018-08-03T16:25:01.108Z,4.60
2018-08-03T16:27:30.374Z,4.00
2018-08-03T16:30:00.295Z,3.70
2018-08-03T16:32:29.575Z,3.80
2018-08-03T16:34:59.272Z,3.60
2018-08-03T16:37:28.974Z,3.97
2018-08-03T16:39:58.227Z,3.50
2018-08-03T16:42:27.895Z,4.10
2018-08-03T16:44:57.544Z,4.20
2018-08-03T16:47:27.186Z,3.73
2018-08-03T16:49:56.402Z,3.83
2018-08-03T16:52:26.157Z,4.00
2018-08-03T16:54:55.784Z,4.20
2018-08-03T16:57:25.083Z,4.43
2018-08-03T16:59:54.754Z,3.93
2018-08-03T17:02:24.220Z,5.07
2018-08-03T17:04:53.496Z,4.07
2018-08-03T17:07:23.075Z,4.33
2018-08-03T17:09:52.691Z,3.40
2018-08-03T17:12:21.990Z,3.80
2018-08-03T17:14:51.360Z,3.90
2018-08-03T17:17:20.590Z,4.60
2018-08-03T17:19:49.839Z,4.07
2018-08-03T17:22:19.108Z,4.13
2018-08-03T17:24:48.730Z,4.13
2018-08-03T17:27:18.315Z,4.57
2018-08-03T17:29:48.215Z,4.60
2018-08-03T17:32:17.455Z,4.43
2018-08-03T17:34:46.684Z,4.50
2018-08-03T17:37:15.959Z,4.50
2018-08-03T17:39:45.235Z,4.37
2018-08-03T17:42:14.225Z,4.37
2018-08-03T17:44:43.924Z,4.90
2018-08-03T17:47:13.548Z,6.17
2018-08-03T17:49:42.811Z,5.03
2018-08-03T17:52:12.359Z,4.30
2018-08-03T17:54:41.618Z,4.87
2018-08-03T17:57:11.214Z,4.63
2018-08-03T17:59:40.644Z,4.60
2018-08-03T18:02:09.905Z,4.87
2018-08-03T18:04:39.173Z,5.30
2018-08-03T18:07:08.792Z,6.20
2018-08-03T18:09:38.055Z,5.37
2018-08-03T18:12:07.514Z,5.80
2018-08-03T18:14:36.791Z,6.63
2018-08-03T18:17:06.358Z,5.03
2018-08-03T18:19:35.891Z,6.50
2018-08-03T18:22:05.128Z,5.50
2018-08-03T18:24:34.395Z,5.27
2018-08-03T18:27:03.946Z,4.50
2018-08-03T18:29:33.163Z,4.47
2018-08-03T18:32:02.836Z,4.80
2018-08-03T18:34:32.100Z,4.83
2018-08-03T18:37:01.347Z,6.07
2018-08-03T18:39:30.570Z,5.80
2018-08-03T18:42:00.324Z,6.03
2018-08-03T18:44:29.613Z,7.33
2018-08-03T18:46:58.935Z,6.83
2018-08-03T18:49:28.216Z,5.87
2018-08-03T18:51:58.146Z,6.77
2018-08-03T18:54:27.394Z,8.00
2018-08-03T18:56:57.675Z,7.30
2018-08-03T18:59:26.906Z,6.97
2018-08-03T19:01:56.727Z,7.33
2018-08-03T19:04:25.964Z,9.37
2018-08-03T19:06:55.986Z,10.93
2018-08-03T19:09:25.258Z,14.77
2018-08-03T19:11:55.479Z,13.20
2018-08-03T19:14:25.628Z,12.40
2018-08-03T19:16:54.869Z,10.70
2018-08-03T19:19:25.008Z,6.70
2018-08-03T19:21:54.370Z,7.03
2018-08-03T19:24:23.564Z,6.17
2018-08-03T19:26:52.829Z,6.10
2018-08-03T19:29:22.054Z,5.30
2018-08-03T19:31:51.388Z,6.40
2018-08-03T19:34:20.566Z,5.83
2018-08-03T19:36:49.860Z,5.60
2018-08-03T19:39:19.157Z,5.13
2018-08-03T19:41:48.420Z,5.20
2018-08-03T19:44:17.989Z,5.03
2018-08-03T19:46:47.689Z,5.63
2018-08-03T19:49:17.253Z,5.27
2018-08-03T19:51:46.523Z,5.53
2018-08-03T19:54:16.526Z,6.67
2018-08-03T19:56:46.273Z,5.97
2018-08-03T19:59:15.999Z,4.80
2018-08-03T20:01:45.007Z,4.60
2018-08-03T20:04:14.263Z,4.50
2018-08-03T20:06:44.035Z,4.17
2018-08-03T20:09:13.710Z,5.30
2018-08-03T20:11:43.424Z,5.20
2018-08-03T20:14:12.679Z,5.10
2018-08-03T20:16:41.968Z,4.83
2018-08-03T20:19:11.240Z,5.00
2018-08-03T20:21:40.675Z,4.70
2018-08-03T20:24:09.913Z,5.30
2018-08-03T20:26:39.138Z,4.40
2018-08-03T20:29:08.425Z,4.73
2018-08-03T20:31:37.729Z,4.63
2018-08-03T20:34:07.250Z,4.70
2018-08-03T20:36:36.522Z,4.40
2018-08-03T20:39:09.107Z,5.23
2018-08-03T20:41:38.425Z,4.20
2018-08-03T20:44:07.708Z,4.10
2018-08-03T20:46:36.981Z,4.63
2018-08-03T20:49:06.608Z,4.30
2018-08-03T20:51:35.928Z,4.30
2018-08-03T20:54:05.162Z,5.83
2018-08-03T20:56:34.456Z,4.80
2018-08-03T20:59:03.751Z,5.27
2018-08-03T21:01:33.378Z,4.60
2018-08-03T21:04:02.694Z,4.20
2018-08-03T21:06:31.972Z,5.23
2018-08-03T21:09:01.230Z,4.30
2018-08-03T21:11:30.531Z,4.30
2018-08-03T21:13:59.758Z,4.63
2018-08-03T21:16:29.422Z,4.80
2018-08-03T21:18:58.973Z,4.47
2018-08-03T21:21:28.884Z,4.40
2018-08-03T21:23:58.590Z,5.17
2018-08-03T21:26:28.563Z,4.20
2018-08-03T21:28:57.841Z,4.73
2018-08-03T21:31:27.949Z,4.57
2018-08-03T21:33:57.806Z,4.20
2018-08-03T21:36:27.297Z,4.80
2018-08-03T21:38:56.973Z,5.10
2018-08-03T21:41:26.506Z,4.90
2018-08-03T21:43:56.131Z,6.43
2018-08-03T21:46:25.360Z,6.17
2018-08-03T21:48:54.635Z,5.70
2018-08-03T21:51:23.907Z,4.47
2018-08-03T21:53:53.520Z,4.73
2018-08-03T21:56:23.210Z,4.60
2018-08-03T21:58:52.533Z,4.37
2018-08-03T22:01:22.208Z,4.60
2018-08-03T22:03:51.495Z,4.83
2018-08-03T22:06:20.806Z,4.20
2018-08-03T22:08:50.033Z,4.90
2018-08-03T22:11:19.307Z,4.23
2018-08-03T22:13:48.591Z,4.67
2018-08-03T22:16:17.887Z,4.73
2018-08-03T22:18:47.571Z,4.50
2018-08-03T22:21:16.608Z,4.23
2018-08-03T22:23:45.842Z,5.17
2018-08-03T22:26:15.098Z,5.30
2018-08-03T22:28:44.735Z,4.60
2018-08-03T22:31:14.026Z,4.27
2018-08-03T22:33:43.325Z,4.70
2018-08-03T22:36:12.708Z,3.90
2018-08-03T22:38:42.023Z,4.20
2018-08-03T22:41:11.259Z,4.67
2018-08-03T22:43:40.946Z,4.53
2018-08-03T22:46:10.209Z,4.73
2018-08-03T22:48:39.496Z,4.30
2018-08-03T22:51:09.222Z,4.30
2018-08-03T22:53:38.764Z,3.63
2018-08-03T22:56:08.819Z,4.37
2018-08-03T22:58:38.084Z,4.40
2018-08-03T23:01:07.689Z,3.70
2018-08-03T23:03:37.770Z,3.97
2018-08-03T23:06:07.705Z,4.00
2018-08-03T23:08:36.973Z,3.37
2018-08-03T23:11:06.198Z,3.70
2018-08-03T23:13:35.417Z,3.90
2018-08-03T23:16:04.725Z,3.67
2018-08-03T23:18:34.244Z,3.93
2018-08-03T23:21:03.964Z,3.30
2018-08-03T23:23:33.267Z,3.53
2018-08-03T23:26:02.541Z,3.60
2018-08-03T23:28:31.889Z,4.13
2018-08-03T23:31:01.625Z,3.87
2018-08-03T23:33:30.870Z,3.50
2018-08-03T23:36:00.447Z,4.00
2018-08-03T23:38:30.016Z,3.97
2018-08-03T23:40:59.570Z,3.80
2018-08-03T23:43:29.014Z,4.00
2018-08-03T23:45:58.243Z,3.93
2018-08-03T23:48:27.771Z,3.77
2018-08-03T23:50:57.040Z,4.13
2018-08-03T23:53:26.751Z,4.33
2018-08-03T23:55:56.452Z,4.20
2018-08-03T23:58:26.140Z,4.30
